Time;durP1;ratioP1;P1;durP2;ratioP2;P2;SDS_P1;SDS_P2;PMS_P1;PMS_P2;Temp;Humidity;BMP_temperature;BMP_pressure;BME280_temperature;BME280_humidity;BME280_pressure;Samples;Min_cycle;Max_cycle;Signal;HPM_P1;HPM_P2
2022/07/22 00:00:30;;;;;;;5.72;5.13;;;21.10;64.60;;;;;;5050441;28;20369;-65
2022/07/22 00:02:56;;;;;;;5.35;4.95;;;21.00;64.80;;;;;;5050126;28;20029;-65
2022/07/22 00:05:21;;;;;;;6.00;5.05;;;20.90;65.10;;;;;;5052663;28;20483;-67
2022/07/22 00:07:47;;;;;;;6.90;4.68;;;20.90;65.20;;;;;;5053851;28;20112;-63
2022/07/22 00:10:13;;;;;;;5.80;5.28;;;20.90;65.30;;;;;;5053559;28;20040;-64
2022/07/22 00:12:39;;;;;;;6.00;5.40;;;20.80;65.50;;;;;;5050143;28;20048;-67
2022/07/22 00:15:06;;;;;;;6.07;4.85;;;20.90;65.90;;;;;;5047451;28;20338;-68
2022/07/22 00:17:31;;;;;;;6.20;5.60;;;20.80;65.70;;;;;;5049250;28;20419;-65
2022/07/22 00:19:57;;;;;;;8.32;5.20;;;20.80;65.70;;;;;;5050656;28;20250;-65
2022/07/22 00:22:23;;;;;;;6.15;5.25;;;20.80;65.60;;;;;;5049031;28;20025;-65
2022/07/22 00:24:48;;;;;;;6.47;5.50;;;20.80;65.70;;;;;;5048204;28;20516;-62
2022/07/22 00:27:14;;;;;;;6.03;5.43;;;20.80;65.80;;;;;;5049082;28;20055;-67
2022/07/22 00:29:39;;;;;;;6.00;5.40;;;20.80;65.90;;;;;;5051639;28;20572;-63
2022/07/22 00:32:05;;;;;;;5.32;4.88;;;20.70;65.90;;;;;;5047976;28;20033;-63
2022/07/22 00:34:31;;;;;;;5.60;5.10;;;20.70;65.90;;;;;;5051127;28;20033;-64
2022/07/22 00:36:56;;;;;;;5.88;5.28;;;20.60;66.00;;;;;;5048833;28;20040;-66
2022/07/22 00:39:22;;;;;;;5.82;5.32;;;20.60;66.10;;;;;;5048255;28;20039;-66
2022/07/22 00:41:48;;;;;;;6.32;5.75;;;20.60;66.20;;;;;;5051516;28;20598;-65
2022/07/22 00:44:14;;;;;;;7.05;5.97;;;20.50;66.40;;;;;;5053212;28;20032;-61
2022/07/22 00:46:40;;;;;;;6.20;5.60;;;20.50;66.70;;;;;;5055050;28;20159;-66
2022/07/22 00:49:07;;;;;;;5.72;5.22;;;20.40;66.90;;;;;;5053702;28;20028;-64
2022/07/22 00:51:33;;;;;;;5.95;5.45;;;20.40;67.00;;;;;;5056687;28;20519;-63
2022/07/22 00:54:00;;;;;;;7.22;5.38;;;20.30;68.00;;;;;;5056044;28;20040;-68
2022/07/22 00:56:26;;;;;;;6.10;5.50;;;20.20;67.10;;;;;;5056278;28;20592;-64
2022/07/22 00:58:54;;;;;;;5.88;5.30;;;20.20;67.30;;;;;;5053149;28;20067;-64
2022/07/22 01:01:20;;;;;;;5.93;4.90;;;20.20;67.40;;;;;;5057273;28;20066;-64
2022/07/22 01:03:45;;;;;;;6.40;5.20;;;20.20;67.30;;;;;;5055607;28;20064;-65
2022/07/22 01:06:11;;;;;;;5.90;5.40;;;20.20;67.30;;;;;;5053309;28;20037;-64
2022/07/22 01:08:38;;;;;;;7.03;5.28;;;20.20;67.40;;;;;;5056284;28;20397;-64
2022/07/22 01:11:15;;;;;;;6.03;5.22;;;20.20;67.40;;;;;;5051144;28;20025;-64
2022/07/22 01:13:41;;;;;;;5.93;5.25;;;20.20;67.80;;;;;;5051619;28;20428;-61
2022/07/22 01:16:08;;;;;;;5.88;5.20;;;20.30;67.30;;;;;;5054060;28;20060;-62
2022/07/22 01:18:34;;;;;;;5.70;5.20;;;20.30;67.30;;;;;;5058267;28;20036;-64
2022/07/22 01:21:00;;;;;;;7.18;5.53;;;20.30;67.40;;;;;;5055487;28;20060;-61
2022/07/22 01:23:26;;;;;;;7.05;5.53;;;20.20;67.30;;;;;;5057903;28;20093;-65
2022/07/22 01:25:52;;;;;;;6.07;5.57;;;20.20;67.40;;;;;;5056910;28;20052;-65
2022/07/22 01:28:19;;;;;;;5.72;5.22;;;20.10;67.60;;;;;;5056629;28;20029;-62
2022/07/22 01:30:45;;;;;;;6.13;5.53;;;20.10;67.60;;;;;;5055262;28;20041;-66
2022/07/22 01:33:10;;;;;;;8.27;5.30;;;20.10;67.60;;;;;;5050790;28;20818;-69
2022/07/22 01:35:36;;;;;;;6.78;5.70;;;20.10;67.70;;;;;;5055507;28;20511;-66
2022/07/22 01:38:02;;;;;;;8.60;5.90;;;20.10;67.80;;;;;;5055733;28;20033;-68
2022/07/22 01:40:28;;;;;;;5.80;5.28;;;20.00;67.80;;;;;;5052472;28;20029;-64
2022/07/22 01:42:54;;;;;;;6.68;5.72;;;20.00;67.80;;;;;;5054195;28;20502;-61
2022/07/22 01:45:19;;;;;;;6.18;5.57;;;20.00;68.10;;;;;;5052561;28;20260;-60
2022/07/22 01:47:45;;;;;;;9.80;5.78;;;19.90;68.10;;;;;;5055578;28;20044;-63
2022/07/22 01:50:11;;;;;;;9.70;5.88;;;19.90;68.20;;;;;;5054227;28;20129;-61
2022/07/22 01:52:38;;;;;;;6.60;6.00;;;19.80;68.20;;;;;;5051766;28;20493;-63
2022/07/22 01:55:07;;;;;;;11.13;5.65;;;19.80;68.50;;;;;;5054839;28;20607;-63
2022/07/22 01:57:33;;;;;;;8.90;5.90;;;19.70;68.60;;;;;;5052772;28;20349;-63
2022/07/22 01:59:59;;;;;;;7.15;6.50;;;19.60;68.80;;;;;;5053097;28;20029;-64
2022/07/22 02:02:24;;;;;;;6.75;6.05;;;19.60;69.00;;;;;;5052375;28;20059;-64
2022/07/22 02:04:50;;;;;;;6.65;6.05;;;19.50;69.10;;;;;;5052445;28;20115;-62
2022/07/22 02:07:16;;;;;;;6.25;5.50;;;19.40;69.30;;;;;;5048928;28;20466;-62
2022/07/22 02:09:41;;;;;;;6.28;5.75;;;19.40;69.50;;;;;;5054387;28;20048;-61
2022/07/22 02:12:08;;;;;;;9.10;5.75;;;19.40;69.70;;;;;;5048603;28;20039;-65
2022/07/22 02:14:33;;;;;;;6.88;6.25;;;19.40;69.80;;;;;;5051466;28;20033;-63
2022/07/22 02:16:59;;;;;;;7.20;6.45;;;19.40;69.90;;;;;;5051153;28;20799;-64
2022/07/22 02:19:25;;;;;;;6.78;6.15;;;19.40;69.80;;;;;;5054162;28;20043;-64
2022/07/22 02:21:50;;;;;;;6.35;5.80;;;19.30;69.80;;;;;;5055071;28;20479;-64
2022/07/22 02:24:16;;;;;;;6.80;6.20;;;19.30;69.90;;;;;;5054358;28;20024;-64
2022/07/22 02:26:41;;;;;;;7.13;6.40;;;19.20;69.90;;;;;;5055426;28;20057;-64
2022/07/22 02:29:07;;;;;;;6.85;6.18;;;19.20;70.10;;;;;;5053704;28;20035;-64
2022/07/22 02:31:33;;;;;;;8.75;6.22;;;19.10;70.30;;;;;;5051112;28;20041;-63
2022/07/22 02:33:58;;;;;;;6.65;6.05;;;19.10;70.50;;;;;;5052686;28;20036;-64
2022/07/22 02:36:24;;;;;;;6.85;6.15;;;19.00;70.60;;;;;;5051284;28;20168;-63
2022/07/22 02:38:49;;;;;;;8.32;6.82;;;19.00;70.80;;;;;;5053402;28;20755;-64
2022/07/22 02:41:15;;;;;;;7.63;6.10;;;19.00;70.90;;;;;;5054791;28;20040;-65
2022/07/22 02:43:41;;;;;;;7.45;6.57;;;19.00;70.90;;;;;;5055099;28;20085;-64
2022/07/22 02:46:06;;;;;;;6.88;6.28;;;19.00;71.10;;;;;;5056373;28;20561;-65
2022/07/22 02:48:33;;;;;;;6.82;6.13;;;18.90;71.10;;;;;;5051789;28;20088;-62
2022/07/22 02:50:58;;;;;;;6.60;5.97;;;18.90;71.30;;;;;;5055265;28;20078;-65
2022/07/22 02:53:24;;;;;;;6.70;6.03;;;18.90;71.60;;;;;;5054498;28;20050;-67
2022/07/22 02:55:50;;;;;;;7.40;6.15;;;18.90;71.60;;;;;;5055954;28;20060;-65
2022/07/22 02:58:15;;;;;;;6.75;6.03;;;18.90;71.60;;;;;;5054823;28;20488;-64
2022/07/22 03:00:41;;;;;;;7.03;6.32;;;18.80;71.60;;;;;;5055367;28;20033;-66
2022/07/22 03:03:07;;;;;;;6.78;6.07;;;18.80;71.80;;;;;;5056873;28;20029;-66
2022/07/22 03:05:32;;;;;;;6.57;5.97;;;18.80;71.80;;;;;;5056158;28;20036;-64
2022/07/22 03:07:58;;;;;;;6.80;6.13;;;18.70;71.80;;;;;;5057100;28;20040;-66
2022/07/22 03:10:24;;;;;;;7.13;6.03;;;18.80;71.90;;;;;;5053671;28;20032;-66
2022/07/22 03:12:49;;;;;;;6.72;6.03;;;18.70;71.90;;;;;;5051535;28;20041;-65
2022/07/22 03:15:15;;;;;;;6.55;6.00;;;18.70;72.00;;;;;;5051565;28;20582;-63
2022/07/22 03:17:40;;;;;;;6.40;5.80;;;18.60;72.00;;;;;;5053022;28;20123;-65
2022/07/22 03:20:09;;;;;;;6.43;5.72;;;18.70;72.10;;;;;;5054875;28;20033;-66
2022/07/22 03:22:35;;;;;;;6.60;5.95;;;18.70;72.20;;;;;;5052675;28;20037;-61
2022/07/22 03:25:01;;;;;;;6.72;5.93;;;18.70;72.00;;;;;;5053687;28;20041;-66
2022/07/22 03:27:26;;;;;;;11.63;6.68;;;18.70;72.00;;;;;;5054624;28;20032;-65
2022/07/22 03:29:52;;;;;;;6.75;6.13;;;18.70;72.00;;;;;;5055560;28;20710;-65
2022/07/22 03:32:18;;;;;;;6.88;6.13;;;18.60;71.80;;;;;;5055522;28;20032;-65
2022/07/22 03:34:44;;;;;;;6.53;5.90;;;18.70;71.90;;;;;;5055879;28;21317;-63
2022/07/22 03:37:10;;;;;;;6.88;6.28;;;18.60;71.90;;;;;;5055374;28;20108;-64
2022/07/22 03:39:36;;;;;;;7.70;6.20;;;18.60;72.90;;;;;;5055264;28;20114;-64
2022/07/22 03:42:01;;;;;;;9.30;6.25;;;18.60;72.20;;;;;;5053300;28;20128;-64
2022/07/22 03:44:27;;;;;;;8.77;6.05;;;18.60;72.10;;;;;;5054149;28;20037;-66
2022/07/22 03:46:53;;;;;;;7.65;6.40;;;18.60;71.90;;;;;;5054242;28;20033;-66
2022/07/22 03:49:19;;;;;;;7.63;6.47;;;18.70;72.00;;;;;;5053581;28;20619;-64
2022/07/22 03:51:44;;;;;;;7.70;6.38;;;18.70;71.80;;;;;;5053438;28;20047;-63
2022/07/22 03:54:10;;;;;;;7.05;6.32;;;18.70;71.90;;;;;;5052935;28;20466;-65
2022/07/22 03:56:35;;;;;;;6.90;6.10;;;18.60;71.70;;;;;;5052362;28;20047;-65
2022/07/22 03:59:02;;;;;;;8.23;6.60;;;18.60;71.80;;;;;;5055589;28;20076;-67
2022/07/22 04:01:27;;;;;;;7.60;6.18;;;18.70;72.00;;;;;;5054708;28;20115;-63
2022/07/22 04:03:53;;;;;;;7.60;6.15;;;18.60;72.10;;;;;;5053075;28;20515;-62
2022/07/22 04:06:18;;;;;;;8.80;6.78;;;18.60;72.30;;;;;;5054709;28;20518;-63
2022/07/22 04:08:44;;;;;;;8.32;7.07;;;18.60;72.30;;;;;;5053071;28;20042;-63
2022/07/22 04:11:10;;;;;;;7.25;6.10;;;18.50;72.50;;;;;;5052730;28;20041;-65
2022/07/22 04:13:35;;;;;;;7.15;6.47;;;18.50;72.70;;;;;;5054316;28;20045;-66
2022/07/22 04:16:01;;;;;;;6.90;6.30;;;18.40;72.90;;;;;;5052910;28;20037;-66
2022/07/22 04:18:29;;;;;;;6.57;5.97;;;18.50;73.10;;;;;;5056570;28;20035;-63
2022/07/22 04:20:54;;;;;;;7.38;6.50;;;18.50;73.20;;;;;;5055895;28;20546;-63
2022/07/22 04:23:20;;;;;;;6.93;6.32;;;18.40;73.10;;;;;;5052485;28;20035;-64
2022/07/22 04:25:46;;;;;;;9.90;6.82;;;18.50;73.30;;;;;;5054646;28;20040;-64
2022/07/22 04:28:12;;;;;;;9.45;6.20;;;18.50;73.20;;;;;;5056030;28;20334;-62
2022/07/22 04:30:37;;;;;;;6.78;6.18;;;18.50;73.20;;;;;;5054067;28;20156;-65
2022/07/22 04:33:03;;;;;;;6.90;5.93;;;18.50;73.20;;;;;;5055705;28;20104;-63
2022/07/22 04:35:28;;;;;;;6.18;5.32;;;18.50;73.10;;;;;;5054678;28;20063;-64
2022/07/22 04:37:54;;;;;;;6.20;5.65;;;18.50;73.20;;;;;;5055405;28;20559;-66
2022/07/22 04:40:19;;;;;;;7.22;5.80;;;18.50;73.00;;;;;;5054845;28;20043;-64
2022/07/22 04:42:45;;;;;;;6.30;5.70;;;18.60;73.10;;;;;;5053999;28;20059;-67
2022/07/22 04:45:11;;;;;;;6.50;5.90;;;18.60;73.10;;;;;;5054399;28;20036;-61
2022/07/22 04:47:37;;;;;;;8.23;6.15;;;18.60;73.20;;;;;;5055214;28;20037;-67
2022/07/22 04:50:03;;;;;;;7.78;6.60;;;18.60;74.40;;;;;;5054451;28;20570;-67
2022/07/22 04:52:29;;;;;;;8.90;6.50;;;18.60;73.70;;;;;;5053005;28;20248;-63
2022/07/22 04:54:54;;;;;;;8.60;6.82;;;18.50;73.70;;;;;;5053146;28;20036;-63
2022/07/22 04:57:20;;;;;;;8.48;7.05;;;18.50;74.00;;;;;;5056299;28;20059;-65
2022/07/22 04:59:45;;;;;;;7.97;7.18;;;18.50;74.20;;;;;;5052624;28;20075;-63
2022/07/22 05:02:11;;;;;;;8.02;7.22;;;18.50;74.60;;;;;;5053013;28;20056;-63
2022/07/22 05:04:37;;;;;;;8.85;7.30;;;18.50;74.70;;;;;;5052767;28;20098;-66
2022/07/22 05:07:02;;;;;;;7.95;7.03;;;18.50;75.10;;;;;;5054755;28;20127;-63
2022/07/22 05:09:28;;;;;;;9.45;7.32;;;18.50;75.10;;;;;;5050491;28;20083;-62
2022/07/22 05:11:54;;;;;;;7.90;7.10;;;18.50;75.40;;;;;;5054983;28;20411;-63
2022/07/22 05:14:20;;;;;;;10.48;8.07;;;18.60;75.60;;;;;;5056664;28;20039;-61
2022/07/22 05:16:45;;;;;;;9.85;7.82;;;18.60;75.60;;;;;;5053153;28;20043;-64
2022/07/22 05:19:11;;;;;;;9.02;7.57;;;18.60;75.70;;;;;;5052773;28;20545;-68
2022/07/22 05:21:36;;;;;;;8.90;7.75;;;18.70;75.80;;;;;;5053712;28;20036;-63
2022/07/22 05:24:03;;;;;;;8.85;7.50;;;18.80;76.00;;;;;;5054881;28;20037;-64
2022/07/22 05:26:31;;;;;;;10.63;7.60;;;18.80;75.80;;;;;;5051535;28;20033;-66
2022/07/22 05:28:56;;;;;;;9.15;8.25;;;18.90;75.80;;;;;;5055213;28;20032;-67
2022/07/22 05:31:22;;;;;;;11.43;8.23;;;18.90;75.80;;;;;;5055055;28;20593;-64
2022/07/22 05:33:48;;;;;;;9.15;7.85;;;19.00;75.80;;;;;;5051106;28;20107;-62
2022/07/22 05:36:13;;;;;;;8.98;7.78;;;19.10;76.80;;;;;;5052001;28;20055;-62
2022/07/22 05:38:39;;;;;;;9.48;8.25;;;19.10;76.10;;;;;;5053877;28;20124;-62
2022/07/22 05:41:04;;;;;;;10.15;8.30;;;19.30;76.30;;;;;;5053564;28;20029;-65
2022/07/22 05:43:30;;;;;;;9.20;8.05;;;19.30;76.10;;;;;;5053639;28;20055;-63
2022/07/22 05:45:56;;;;;;;11.43;8.35;;;19.50;76.20;;;;;;5052507;28;20103;-64
2022/07/22 05:48:22;;;;;;;8.90;8.02;;;19.60;76.10;;;;;;5052341;28;20053;-62
2022/07/22 05:50:47;;;;;;;11.23;8.30;;;19.60;75.90;;;;;;5051119;28;20080;-63
2022/07/22 05:53:13;;;;;;;8.80;7.72;;;19.70;76.20;;;;;;5053881;28;20546;-63
2022/07/22 05:55:38;;;;;;;9.52;8.02;;;19.80;76.30;;;;;;5053911;28;20037;-64
2022/07/22 05:58:04;;;;;;;10.15;7.80;;;19.90;75.90;;;;;;5052845;28;20036;-67
2022/07/22 06:00:30;;;;;;;10.05;7.82;;;20.00;76.00;;;;;;5052266;28;20521;-67
2022/07/22 06:02:55;;;;;;;10.45;8.15;;;20.10;75.90;;;;;;5052836;28;20044;-63
2022/07/22 06:05:21;;;;;;;9.95;8.13;;;20.30;75.60;;;;;;5053492;28;20818;-63
2022/07/22 06:07:47;;;;;;;9.55;8.55;;;20.50;75.40;;;;;;5052281;28;20408;-65
2022/07/22 06:10:12;;;;;;;14.25;10.38;;;20.50;75.20;;;;;;5054742;28;20044;-66
2022/07/22 06:12:38;;;;;;;14.10;9.70;;;20.60;74.80;;;;;;5055014;28;20040;-64
2022/07/22 06:15:04;;;;;;;12.43;10.13;;;20.70;74.30;;;;;;5054734;28;20142;-64
2022/07/22 06:17:31;;;;;;;10.75;9.65;;;20.80;74.20;;;;;;5052127;28;20703;-64
2022/07/22 06:19:56;;;;;;;10.73;9.68;;;20.90;73.70;;;;;;5054189;28;20033;-66
2022/07/22 06:22:22;;;;;;;11.20;9.02;;;21.00;73.50;;;;;;5051683;28;20052;-65
2022/07/22 06:24:48;;;;;;;10.15;9.07;;;21.10;73.90;;;;;;5051212;28;20094;-64
2022/07/22 06:27:14;;;;;;;10.73;9.68;;;21.20;74.20;;;;;;5049351;28;20040;-64
2022/07/22 06:29:40;;;;;;;10.85;9.75;;;21.30;73.00;;;;;;5051590;28;20029;-64
2022/07/22 06:32:06;;;;;;;10.98;9.02;;;21.40;72.70;;;;;;5049982;28;20120;-62
2022/07/22 06:34:32;;;;;;;10.05;8.75;;;21.50;72.50;;;;;;5051741;28;20462;-63
2022/07/22 06:36:58;;;;;;;14.05;10.43;;;21.60;72.10;;;;;;5052352;28;20037;-63
2022/07/22 06:39:23;;;;;;;12.80;10.30;;;21.70;71.90;;;;;;5052809;28;20037;-63
2022/07/22 06:41:49;;;;;;;10.55;9.52;;;21.70;71.60;;;;;;5052948;28;20037;-65
2022/07/22 06:44:14;;;;;;;11.73;10.63;;;21.80;71.40;;;;;;5050688;28;20123;-63
2022/07/22 06:46:40;;;;;;;10.40;9.40;;;21.80;71.00;;;;;;5047146;28;20037;-66
2022/07/22 06:49:06;;;;;;;11.00;9.90;;;21.90;71.00;;;;;;5052388;28;20043;-66
2022/07/22 06:51:32;;;;;;;10.95;9.25;;;22.00;71.10;;;;;;5051927;28;20079;-65
2022/07/22 06:53:57;;;;;;;10.55;8.70;;;22.00;70.70;;;;;;5053022;28;20108;-66
2022/07/22 06:56:23;;;;;;;11.00;9.60;;;22.10;70.70;;;;;;5055048;28;20024;-62
2022/07/22 06:58:49;;;;;;;9.43;8.43;;;22.20;70.70;;;;;;5054999;28;20025;-64
2022/07/22 07:01:14;;;;;;;10.07;9.18;;;22.30;70.40;;;;;;5055972;28;20036;-63
2022/07/22 07:03:40;;;;;;;9.65;8.68;;;22.40;69.90;;;;;;5054929;28;20476;-65
2022/07/22 07:06:11;;;;;;;10.77;7.85;;;22.40;69.50;;;;;;5055064;28;20048;-65
2022/07/22 07:08:40;;;;;;;8.98;8.07;;;22.60;69.20;;;;;;5054352;28;20116;-67
2022/07/22 07:11:06;;;;;;;10.48;8.68;;;22.60;68.80;;;;;;5052727;28;20037;-65
2022/07/22 07:13:31;;;;;;;10.20;8.65;;;22.70;68.40;;;;;;5057149;28;20037;-65
2022/07/22 07:15:57;;;;;;;9.23;8.27;;;22.80;68.00;;;;;;5056542;28;20047;-65
2022/07/22 07:18:23;;;;;;;8.80;7.80;;;22.90;67.80;;;;;;5057934;28;20489;-63
2022/07/22 07:20:49;;;;;;;8.93;7.38;;;23.00;67.50;;;;;;5055388;28;20120;-65
2022/07/22 07:23:15;;;;;;;9.57;7.85;;;23.10;67.20;;;;;;5055929;28;20044;-66
2022/07/22 07:25:41;;;;;;;8.68;7.72;;;23.20;67.10;;;;;;5056535;28;20045;-66
2022/07/22 07:28:06;;;;;;;10.43;7.93;;;23.30;66.70;;;;;;5054109;28;21643;-66
2022/07/22 07:30:32;;;;;;;9.00;8.02;;;23.40;66.40;;;;;;5054864;28;20049;-66
2022/07/22 07:33:00;;;;;;;10.48;8.52;;;23.50;66.00;;;;;;5056105;28;20057;-62
2022/07/22 07:35:26;;;;;;;11.07;8.48;;;23.60;65.90;;;;;;5052644;28;20032;-65
2022/07/22 07:37:52;;;;;;;9.30;8.40;;;23.70;65.80;;;;;;5057063;28;20036;-65
2022/07/22 07:40:18;;;;;;;8.90;8.02;;;23.80;65.60;;;;;;5054734;28;20061;-65
2022/07/22 07:42:44;;;;;;;9.55;8.52;;;23.90;65.20;;;;;;5052498;28;20091;-65
2022/07/22 07:45:10;;;;;;;9.10;8.20;;;23.90;65.80;;;;;;5054484;28;20037;-64
2022/07/22 07:47:36;;;;;;;8.75;7.68;;;24.10;64.70;;;;;;5054279;28;20037;-64
2022/07/22 07:50:02;;;;;;;7.13;6.40;;;24.10;64.50;;;;;;5055047;28;20055;-64
2022/07/22 07:52:28;;;;;;;7.95;6.53;;;24.20;64.10;;;;;;5049261;28;20044;-66
2022/07/22 07:54:55;;;;;;;7.63;6.15;;;24.30;63.60;;;;;;5043002;28;20389;-64
2022/07/22 07:57:21;;;;;;;8.40;6.10;;;24.40;63.50;;;;;;5050120;28;20036;-62
2022/07/22 07:59:46;;;;;;;6.40;5.80;;;24.50;63.30;;;;;;5050566;28;20075;-60
2022/07/22 08:02:12;;;;;;;6.55;5.40;;;24.70;62.70;;;;;;5048887;28;20068;-63
2022/07/22 08:04:38;;;;;;;5.45;4.93;;;24.70;61.60;;;;;;5053758;28;20040;-64
2022/07/22 08:07:05;;;;;;;5.88;5.05;;;24.90;60.70;;;;;;5051572;28;20147;-66
2022/07/22 08:09:31;;;;;;;5.85;4.32;;;25.00;60.20;;;;;;5051183;28;20456;-65
2022/07/22 08:11:57;;;;;;;6.32;5.07;;;25.00;59.90;;;;;;5046661;28;20116;-60
2022/07/22 08:14:23;;;;;;;5.90;5.30;;;25.20;59.70;;;;;;5052679;28;20125;-62
2022/07/22 08:16:49;;;;;;;7.97;5.97;;;25.30;59.30;;;;;;5052343;28;20043;-63
2022/07/22 08:19:15;;;;;;;5.70;5.10;;;25.40;58.90;;;;;;5052232;28;20036;-64
2022/07/22 08:21:42;;;;;;;5.43;4.85;;;25.50;58.80;;;;;;5044463;28;20064;-64
2022/07/22 08:24:09;;;;;;;6.13;5.63;;;25.60;58.70;;;;;;5043035;28;20036;-65
2022/07/22 08:26:34;;;;;;;8.75;5.20;;;25.70;58.30;;;;;;5044040;28;20515;-66
2022/07/22 08:29:00;;;;;;;7.32;5.43;;;25.80;58.40;;;;;;5044995;28;20033;-65
2022/07/22 08:31:27;;;;;;;7.93;5.50;;;25.90;58.20;;;;;;5046648;28;20132;-63
2022/07/22 08:33:53;;;;;;;6.10;5.55;;;26.00;57.90;;;;;;5045025;28;20451;-64
2022/07/22 08:36:19;;;;;;;6.25;5.30;;;26.10;57.50;;;;;;5043645;28;20066;-63
2022/07/22 08:38:44;;;;;;;6.45;5.85;;;26.20;57.30;;;;;;5044086;28;20606;-63
2022/07/22 08:41:10;;;;;;;6.25;5.22;;;26.30;57.20;;;;;;5046655;28;20125;-63
2022/07/22 08:43:43;;;;;;;6.10;4.97;;;26.40;57.40;;;;;;5046182;28;20033;-61
2022/07/22 08:46:09;;;;;;;6.35;5.70;;;26.50;56.80;;;;;;5044647;28;24026;-62
2022/07/22 08:48:37;;;;;;;6.13;5.18;;;26.60;56.60;;;;;;5042243;28;20037;-67
2022/07/22 08:51:03;;;;;;;6.40;5.80;;;26.70;56.50;;;;;;5044362;28;20518;-65
2022/07/22 08:53:28;;;;;;;5.90;5.28;;;26.80;56.20;;;;;;5043150;28;20033;-63
2022/07/22 08:55:54;;;;;;;7.80;5.05;;;26.90;56.10;;;;;;5045032;28;20156;-64
2022/07/22 08:58:20;;;;;;;5.50;5.00;;;27.00;55.90;;;;;;5045315;28;20183;-61
2022/07/22 09:00:46;;;;;;;5.90;5.15;;;27.20;55.90;;;;;;5045509;28;20044;-63
2022/07/22 09:03:21;;;;;;;5.80;5.22;;;27.30;55.60;;;;;;5045842;28;20566;-65
2022/07/22 09:05:48;;;;;;;5.38;4.90;;;27.40;55.00;;;;;;5046541;28;20159;-64
2022/07/22 09:08:14;;;;;;;6.05;5.45;;;27.50;55.20;;;;;;5049224;28;20562;-60
2022/07/22 09:10:39;;;;;;;8.65;5.80;;;27.60;54.90;;;;;;5041965;28;20037;-63
2022/07/22 09:13:07;;;;;;;5.85;5.32;;;27.70;54.20;;;;;;5051570;28;20124;-62
2022/07/22 09:15:39;;;;;;;5.72;5.20;;;27.80;54.10;;;;;;5050674;28;20608;-63
2022/07/22 09:18:06;;;;;;;5.50;5.00;;;27.90;54.10;;;;;;5046996;28;20571;-63
2022/07/22 09:20:32;;;;;;;6.18;4.70;;;28.00;54.20;;;;;;5045061;28;20115;-64
2022/07/22 09:22:58;;;;;;;5.88;4.43;;;28.10;54.00;;;;;;5048238;28;20033;-60
2022/07/22 09:25:31;;;;;;;6.38;4.90;;;28.20;54.10;;;;;;5050364;28;20531;-62
2022/07/22 09:28:11;;;;;;;5.57;5.07;;;28.30;53.30;;;;;;5058508;28;20037;-65
2022/07/22 09:30:48;;;;;;;7.13;5.60;;;28.50;52.70;;;;;;5056673;28;20028;-63
2022/07/22 09:33:14;;;;;;;5.82;5.10;;;28.60;52.50;;;;;;5055604;28;20119;-61
2022/07/22 09:35:40;;;;;;;5.13;4.57;;;28.70;52.90;;;;;;5056944;28;20123;-62
2022/07/22 09:38:09;;;;;;;5.10;4.45;;;28.80;52.40;;;;;;5056393;28;20128;-60
2022/07/22 09:40:42;;;;;;;5.15;4.43;;;28.90;52.20;;;;;;5054834;28;20043;-63
2022/07/22 09:43:15;;;;;;;6.53;5.00;;;29.00;51.70;;;;;;5055525;28;20415;-65
2022/07/22 09:45:48;;;;;;;5.05;4.55;;;29.00;51.60;;;;;;5058611;28;20515;-62
2022/07/22 09:48:19;;;;;;;5.78;4.60;;;29.10;51.20;;;;;;5055092;28;20063;-64
2022/07/22 09:50:45;;;;;;;4.75;4.18;;;29.30;51.50;;;;;;5059020;28;20560;-60
2022/07/22 09:53:11;;;;;;;5.18;4.68;;;29.40;51.20;;;;;;5057037;28;20131;-64
2022/07/22 09:55:39;;;;;;;4.95;4.45;;;29.40;50.70;;;;;;5058705;28;20127;-62
2022/07/22 09:58:07;;;;;;;5.80;4.40;;;29.60;50.50;;;;;;5055882;28;20552;-64
2022/07/22 10:00:34;;;;;;;4.80;4.40;;;29.70;50.10;;;;;;5056131;28;20037;-64
2022/07/22 10:03:02;;;;;;;5.20;4.30;;;29.80;49.60;;;;;;5055393;28;20060;-62
2022/07/22 10:05:30;;;;;;;5.38;4.13;;;29.80;49.20;;;;;;5056062;28;20415;-64
2022/07/22 10:07:57;;;;;;;4.70;4.30;;;29.90;48.80;;;;;;5055112;28;20546;-63
2022/07/22 10:10:25;;;;;;;4.68;4.20;;;30.00;49.10;;;;;;5054374;28;20040;-64
2022/07/22 10:12:53;;;;;;;4.43;4.03;;;30.00;48.70;;;;;;5054998;28;20036;-61
2022/07/22 10:15:19;;;;;;;4.30;4.00;;;30.10;48.50;;;;;;5057337;28;20176;-63
2022/07/22 10:17:48;;;;;;;4.53;4.13;;;30.20;48.50;;;;;;5055191;28;20048;-63
2022/07/22 10:20:17;;;;;;;5.78;4.15;;;30.20;48.20;;;;;;5056148;28;20032;-63
2022/07/22 10:22:42;;;;;;;4.50;4.10;;;30.30;47.80;;;;;;5054744;28;20043;-62
2022/07/22 10:25:10;;;;;;;4.43;4.13;;;30.40;47.80;;;;;;5055566;28;20251;-61
2022/07/22 10:27:48;;;;;;;3.92;3.60;;;30.50;47.80;;;;;;5054496;28;20151;-63
2022/07/22 10:30:17;;;;;;;4.18;3.50;;;30.60;46.10;;;;;;5054860;28;20617;-61
2022/07/22 10:32:43;;;;;;;4.70;4.30;;;30.70;46.60;;;;;;5052329;28;20128;-61
2022/07/22 10:35:09;;;;;;;4.38;3.58;;;30.70;46.50;;;;;;5054558;28;20043;-60
2022/07/22 10:37:34;;;;;;;4.07;3.78;;;30.80;46.30;;;;;;5052427;28;20175;-64
2022/07/22 10:40:14;;;;;;;4.15;3.83;;;30.80;45.80;;;;;;5053784;28;20062;-62
2022/07/22 10:43:01;;;;;;;4.13;3.83;;;30.90;45.10;;;;;;5053044;28;20048;-61
2022/07/22 10:45:32;;;;;;;4.07;3.78;;;30.90;45.50;;;;;;5055122;28;20051;-59
2022/07/22 10:47:59;;;;;;;4.55;4.13;;;30.90;45.80;;;;;;5054491;28;21486;-60
2022/07/22 10:50:40;;;;;;;4.10;3.72;;;30.90;45.20;;;;;;5053822;28;20037;-63
2022/07/22 10:53:11;;;;;;;4.18;3.88;;;31.00;45.00;;;;;;5054294;28;20123;-62
2022/07/22 10:55:38;;;;;;;4.68;3.85;;;31.00;45.30;;;;;;5053031;28;20043;-64
2022/07/22 10:58:31;;;;;;;4.18;3.88;;;31.10;44.30;;;;;;5054681;28;20047;-63
2022/07/22 11:00:58;;;;;;;4.55;3.88;;;31.10;43.40;;;;;;5052626;28;20121;-63
2022/07/22 11:03:25;;;;;;;7.18;3.70;;;31.10;44.80;;;;;;5053861;28;20032;-66
2022/07/22 11:05:51;;;;;;;4.07;3.78;;;31.10;44.40;;;;;;5055525;28;20036;-64
2022/07/22 11:08:18;;;;;;;3.55;3.25;;;31.10;44.00;;;;;;5053110;28;20507;-63
2022/07/22 11:10:50;;;;;;;3.85;3.55;;;31.10;44.10;;;;;;5054342;28;20059;-62
2022/07/22 11:13:32;;;;;;;3.92;3.63;;;31.20;43.20;;;;;;5058131;28;20048;-63
2022/07/22 11:16:36;;;;;;;3.45;3.15;;;31.20;43.20;;;;;;5054407;28;20340;-62
2022/07/22 11:19:02;;;;;;;3.70;3.40;;;31.30;43.80;;;;;;4991477;28;20044;-64
2022/07/22 11:21:31;;;;;;;4.18;3.65;;;31.30;43.70;;;;;;4992901;28;20041;-64
2022/07/22 11:23:59;;;;;;;3.60;3.30;;;31.30;43.10;;;;;;5022405;28;20047;-64
2022/07/22 11:26:46;;;;;;;4.40;3.67;;;31.30;43.20;;;;;;5055035;28;20113;-64
2022/07/22 11:29:37;;;;;;;3.70;3.40;;;31.30;42.90;;;;;;5055836;28;20120;-61
2022/07/22 11:32:06;;;;;;;3.75;3.40;;;31.40;42.60;;;;;;5054936;28;20107;-64
2022/07/22 11:34:32;;;;;;;5.03;3.38;;;31.40;43.00;;;;;;5055050;28;20037;-64
2022/07/22 11:36:58;;;;;;;4.20;3.90;;;31.50;42.70;;;;;;5056579;28;20029;-63
2022/07/22 11:39:27;;;;;;;4.05;3.75;;;31.50;42.80;;;;;;5054849;28;20040;-63
2022/07/22 11:41:55;;;;;;;3.90;3.60;;;31.50;42.30;;;;;;5056081;28;20043;-62
2022/07/22 11:44:27;;;;;;;4.50;3.55;;;31.60;42.10;;;;;;5055381;28;20041;-64
2022/07/22 11:46:54;;;;;;;3.78;3.47;;;31.60;41.30;;;;;;5054795;28;20033;-63
2022/07/22 11:49:21;;;;;;;3.60;3.30;;;31.60;42.10;;;;;;5056440;28;20032;-64
2022/07/22 11:51:47;;;;;;;3.50;3.30;;;31.60;41.80;;;;;;5052979;28;20859;-64
2022/07/22 11:54:13;;;;;;;4.45;3.70;;;31.70;42.40;;;;;;5054151;28;20543;-62
2022/07/22 11:56:39;;;;;;;3.55;3.35;;;31.70;41.90;;;;;;5053620;28;20048;-61
2022/07/22 11:59:07;;;;;;;3.50;3.20;;;31.80;41.70;;;;;;5054957;28;20106;-64
2022/07/22 12:01:34;;;;;;;3.95;3.47;;;31.80;41.20;;;;;;5056776;28;20403;-63
2022/07/22 12:04:06;;;;;;;3.92;3.47;;;31.90;41.00;;;;;;5054615;28;20136;-62
2022/07/22 12:06:37;;;;;;;3.60;3.30;;;31.90;40.80;;;;;;5055639;28;20025;-64
2022/07/22 12:09:05;;;;;;;3.50;3.20;;;31.90;40.50;;;;;;5056803;28;20033;-62
2022/07/22 12:11:32;;;;;;;4.75;3.58;;;31.90;41.10;;;;;;5052123;28;20037;-62
2022/07/22 12:14:14;;;;;;;4.75;3.38;;;31.90;41.30;;;;;;5056507;28;20402;-62
2022/07/22 12:16:43;;;;;;;3.88;3.58;;;32.10;41.00;;;;;;5051397;28;20468;-63
2022/07/22 12:19:10;;;;;;;3.75;3.22;;;32.10;40.90;;;;;;5049878;28;20056;-62
2022/07/22 12:22:02;;;;;;;3.95;3.65;;;32.10;40.80;;;;;;5055286;28;20058;-63
2022/07/22 12:24:42;;;;;;;3.78;3.45;;;32.20;40.10;;;;;;5046706;28;20045;-66
2022/07/22 12:27:13;;;;;;;3.40;3.20;;;32.20;39.90;;;;;;5045941;28;20039;-66
2022/07/22 12:29:39;;;;;;;3.97;3.67;;;32.30;39.90;;;;;;5053429;28;20079;-62
2022/07/22 12:32:09;;;;;;;3.10;2.90;;;32.30;39.70;;;;;;5053116;28;20021;-62
2022/07/22 12:34:45;;;;;;;3.63;3.33;;;32.40;39.50;;;;;;5049966;28;20154;-63
2022/07/22 12:37:26;;;;;;;3.45;3.25;;;32.40;39.30;;;;;;5053707;28;20041;-62
2022/07/22 12:39:56;;;;;;;3.80;3.50;;;32.40;37.90;;;;;;5054000;28;20025;-62
2022/07/22 12:42:23;;;;;;;4.20;3.15;;;32.40;37.80;;;;;;5057644;28;20036;-62
2022/07/22 12:44:59;;;;;;;4.57;2.90;;;32.40;38.80;;;;;;5054375;28;20036;-61